Time;durP1;ratioP1;P1;durP2;ratioP2;P2;SDS_P1;SDS_P2;PMS_P1;PMS_P2;Temp;Humidity;BMP_temperature;BMP_pressure;BME280_temperature;BME280_humidity;BME280_pressure;Samples;Min_cycle;Max_cycle;Signal;HPM_P1;HPM_P2
2022/02/18 00:01:13;;;;;;;12.47;3.63;;;;;;;11.25;46.58;97567.47;8349066;28;20238;-68
2022/02/18 00:05:16;;;;;;;14.53;4.33;;;;;;;11.34;47.40;97567.81;8350106;28;20291;-68
2022/02/18 00:09:20;;;;;;;18.27;5.80;;;;;;;11.25;47.28;97564.88;8350055;28;20228;-68
2022/02/18 00:13:23;;;;;;;21.03;5.43;;;;;;;11.24;47.67;97561.47;8349900;28;20232;-68
2022/02/18 00:17:26;;;;;;;28.20;6.63;;;;;;;11.22;48.26;97546.91;8349680;28;20232;-68
2022/02/18 00:21:32;;;;;;;28.63;6.80;;;;;;;11.20;49.14;97549.59;8349449;28;20274;-68
2022/02/18 00:25:38;;;;;;;21.87;6.10;;;;;;;11.20;50.03;97559.94;8350102;28;20239;-68
2022/02/18 00:29:41;;;;;;;25.70;6.57;;;;;;;11.11;50.56;97555.25;8349633;28;20565;-68
2022/02/18 00:33:44;;;;;;;25.20;7.80;;;;;;;10.95;51.49;97547.47;8349185;28;20437;-68
2022/02/18 00:37:47;;;;;;;30.73;8.07;;;;;;;11.12;51.60;97565.53;8349241;28;20235;-68
2022/02/18 00:41:52;;;;;;;29.33;7.47;;;;;;;11.14;51.85;97568.88;8349120;28;20562;-68
2022/02/18 00:45:56;;;;;;;30.03;8.33;;;;;;;11.01;52.62;97557.50;8348594;28;20528;-68
2022/02/18 00:49:59;;;;;;;32.37;7.83;;;;;;;11.00;52.79;97562.75;8348629;28;20239;-68
2022/02/18 00:54:02;;;;;;;32.90;8.47;;;;;;;11.06;52.86;97568.47;8348380;28;20235;-68
2022/02/18 00:58:06;;;;;;;28.47;7.50;;;;;;;11.01;52.36;97590.34;8348553;28;20224;-68
2022/02/18 01:02:09;;;;;;;24.10;6.27;;;;;;;11.21;51.08;97584.94;8348405;28;20236;-68
2022/02/18 01:06:12;;;;;;;22.13;6.03;;;;;;;11.30;51.12;97587.03;8347483;28;20243;-68
2022/02/18 01:10:15;;;;;;;25.67;6.67;;;;;;;11.27;50.66;97586.38;8348292;28;20228;-68
2022/02/18 01:14:20;;;;;;;22.87;6.03;;;;;;;11.36;50.27;97575.50;8348447;28;20450;-68
2022/02/18 01:18:23;;;;;;;26.70;6.33;;;;;;;11.31;50.28;97561.97;8348081;28;20239;-68
2022/02/18 01:22:26;;;;;;;28.17;6.47;;;;;;;11.23;50.97;97572.75;8347720;28;20228;-68
2022/02/18 01:26:29;;;;;;;30.40;7.57;;;;;;;11.19;51.65;97585.94;8348086;28;20547;-68
2022/02/18 01:30:34;;;;;;;35.53;8.53;;;;;;;11.12;52.05;97590.63;8347393;28;20224;-69
2022/02/18 01:34:37;;;;;;;31.43;9.33;;;;;;;11.20;51.94;97580.69;8347808;28;20445;-69
2022/02/18 01:38:41;;;;;;;36.93;9.27;;;;;;;11.09;52.31;97577.81;8347660;28;20236;-68
2022/02/18 01:42:44;;;;;;;29.07;7.87;;;;;;;11.13;51.60;97566.38;8348517;28;20561;-68
2022/02/18 01:46:48;;;;;;;33.07;8.20;;;;;;;11.13;51.87;97569.78;8349528;28;20243;-68
2022/02/18 01:50:51;;;;;;;34.43;8.40;;;;;;;11.14;51.61;97555.09;8349731;28;20201;-68
2022/02/18 01:54:54;;;;;;;33.60;8.30;;;;;;;11.09;51.34;97549.31;8349151;28;20214;-68
2022/02/18 01:58:57;;;;;;;33.63;8.20;;;;;;;11.11;51.37;97540.53;8349233;28;20200;-68
2022/02/18 02:03:03;;;;;;;31.40;8.63;;;;;;;11.12;51.17;97552.59;8347628;28;20228;-68
2022/02/18 02:07:07;;;;;;;27.00;7.03;;;;;;;11.26;51.08;97549.25;8347388;28;20239;-68
2022/02/18 02:11:10;;;;;;;32.23;8.40;;;;;;;11.19;51.09;97553.09;8346921;28;20534;-68
2022/02/18 02:15:13;;;;;;;30.60;7.73;;;;;;;11.27;51.07;97544.91;8347373;28;20228;-68
2022/02/18 02:19:19;;;;;;;30.50;7.80;;;;;;;11.30;50.71;97557.69;8353551;28;20239;-68
2022/02/18 02:23:23;;;;;;;27.60;7.43;;;;;;;11.15;51.31;97556.75;8353354;28;20243;-68
2022/02/18 02:27:26;;;;;;;35.33;8.90;;;;;;;11.22;50.88;97565.88;8353102;28;20239;-68
2022/02/18 02:31:29;;;;;;;29.03;7.60;;;;;;;11.11;51.21;97558.66;8353133;28;20539;-68
2022/02/18 02:35:32;;;;;;;35.63;8.23;;;;;;;11.10;51.25;97559.59;8352477;28;20426;-68
2022/02/18 02:39:36;;;;;;;29.27;7.83;;;;;;;11.24;50.87;97555.44;8352796;28;20232;-69
2022/02/18 02:43:39;;;;;;;27.40;7.83;;;;;;;11.30;50.67;97560.28;8352887;28;20232;-68
2022/02/18 02:47:45;;;;;;;29.33;7.47;;;;;;;11.28;50.79;97554.34;8352404;28;20236;-68
2022/02/18 02:51:48;;;;;;;32.33;8.43;;;;;;;11.14;51.16;97548.16;8352625;28;20239;-68
2022/02/18 02:55:53;;;;;;;31.57;8.03;;;;;;;11.32;50.81;97545.50;8352369;28;20244;-68
2022/02/18 02:59:56;;;;;;;28.57;7.23;;;;;;;11.27;50.50;97537.97;8352257;28;20231;-68
2022/02/18 03:03:59;;;;;;;32.83;8.60;;;;;;;11.28;50.44;97529.25;8352362;28;20224;-68
2022/02/18 03:08:03;;;;;;;33.77;7.87;;;;;;;11.25;50.69;97532.03;8352154;28;20228;-68
2022/02/18 03:12:09;;;;;;;30.13;7.70;;;;;;;11.15;50.67;97518.72;8351768;28;20239;-68
2022/02/18 03:16:12;;;;;;;27.87;7.17;;;;;;;11.09;51.12;97520.81;8351937;28;20232;-68
2022/02/18 03:20:15;;;;;;;32.50;7.43;;;;;;;11.14;50.87;97547.31;8350718;28;20236;-68
2022/02/18 03:24:18;;;;;;;28.70;7.50;;;;;;;11.06;51.00;97552.06;8350558;28;20523;-68
2022/02/18 03:28:23;;;;;;;30.83;6.97;;;;;;;11.11;50.84;97571.63;8349483;28;20232;-68
2022/02/18 03:32:29;;;;;;;29.97;7.97;;;;;;;11.24;50.80;97561.47;8351886;28;20224;-69
2022/02/18 03:36:33;;;;;;;28.27;7.70;;;;;;;11.18;50.74;97529.88;8350429;28;20235;-69
2022/02/18 03:40:37;;;;;;;28.20;7.83;;;;;;;11.21;50.55;97542.63;8350809;28;20243;-69
2022/02/18 03:44:41;;;;;;;29.27;7.53;;;;;;;11.19;50.63;97557.44;8350589;28;20236;-69
2022/02/18 03:48:44;;;;;;;28.97;7.43;;;;;;;11.33;50.65;97554.97;8350457;28;20240;-69
2022/02/18 03:52:51;;;;;;;26.33;7.03;;;;;;;11.15;50.60;97555.00;8350651;28;20232;-69
2022/02/18 03:56:55;;;;;;;26.13;7.33;;;;;;;11.22;50.71;97552.09;8350434;28;20232;-69
2022/02/18 04:00:59;;;;;;;26.77;7.10;;;;;;;11.37;50.69;97555.63;8350456;28;20224;-69
2022/02/18 04:05:03;;;;;;;29.40;7.67;;;;;;;11.41;50.41;97547.59;8349693;28;20228;-69
2022/02/18 04:09:06;;;;;;;27.23;7.60;;;;;;;11.36;50.39;97544.41;8350129;28;20232;-69
2022/02/18 04:13:09;;;;;;;30.23;7.33;;;;;;;11.29;50.60;97541.31;8349897;28;20234;-69
2022/02/18 04:17:13;;;;;;;32.17;7.77;;;;;;;11.28;50.11;97541.41;8349722;28;20228;-69
2022/02/18 04:21:16;;;;;;;30.07;7.60;;;;;;;11.44;50.25;97549.16;8348441;28;20232;-69
2022/02/18 04:25:19;;;;;;;32.43;7.83;;;;;;;11.29;50.55;97545.66;8349183;28;20531;-69
2022/02/18 04:29:22;;;;;;;29.23;7.30;;;;;;;11.27;50.50;97550.94;8349321;28;20235;-69
2022/02/18 04:33:26;;;;;;;30.63;8.07;;;;;;;11.03;51.37;97544.47;8349212;28;20416;-68
2022/02/18 04:37:29;;;;;;;30.60;7.63;;;;;;;11.13;51.13;97554.25;8348949;28;20244;-69
2022/02/18 04:41:34;;;;;;;28.17;7.20;;;;;;;11.31;50.49;97543.84;8347146;28;20228;-69
2022/02/18 04:45:37;;;;;;;31.87;7.97;;;;;;;11.31;50.39;97546.44;8348395;28;20240;-69
2022/02/18 04:49:43;;;;;;;30.10;8.03;;;;;;;11.25;50.68;97536.38;8348323;28;20236;-69
2022/02/18 04:53:48;;;;;;;29.07;7.83;;;;;;;11.31;50.66;97525.69;8348700;28;20236;-69
2022/02/18 04:57:51;;;;;;;28.00;7.20;;;;;;;11.19;50.61;97534.09;8348558;28;20428;-69
2022/02/18 05:01:54;;;;;;;27.63;7.73;;;;;;;11.19;50.81;97524.56;8348331;28;20232;-69
2022/02/18 05:05:58;;;;;;;31.90;7.77;;;;;;;11.18;50.83;97520.31;8348109;28;20236;-68
2022/02/18 05:10:03;;;;;;;28.73;7.60;;;;;;;11.09;51.28;97511.28;8348127;28;20232;-69
2022/02/18 05:14:06;;;;;;;29.87;7.90;;;;;;;11.08;51.23;97514.81;8347947;28;20239;-69
2022/02/18 05:18:09;;;;;;;27.67;7.17;;;;;;;10.94;51.60;97501.72;8348044;28;20235;-69
2022/02/18 05:22:13;;;;;;;30.67;8.13;;;;;;;10.98;51.45;97489.44;8347899;28;20228;-69
2022/02/18 05:26:17;;;;;;;28.40;7.37;;;;;;;10.91;51.92;97491.56;8347760;28;20236;-69
2022/02/18 05:30:20;;;;;;;25.73;7.30;;;;;;;10.92;51.98;97498.38;8347774;28;20414;-68
2022/02/18 05:34:26;;;;;;;31.67;7.50;;;;;;;11.12;51.28;97486.97;8347696;28;20251;-69
2022/02/18 05:38:30;;;;;;;36.47;7.60;;;;;;;11.12;51.22;97497.34;8347552;28;20236;-69
2022/02/18 05:42:33;;;;;;;27.97;7.73;;;;;;;11.14;51.05;97487.72;8347029;28;20227;-69
2022/02/18 05:46:36;;;;;;;27.67;7.40;;;;;;;11.16;51.13;97472.91;8347365;28;20247;-69
2022/02/18 05:50:39;;;;;;;32.30;8.20;;;;;;;11.12;50.78;97476.59;8349869;28;20236;-69
2022/02/18 05:54:43;;;;;;;27.33;7.80;;;;;;;10.87;51.95;97458.94;8353247;28;20232;-69
2022/02/18 05:58:46;;;;;;;26.20;7.60;;;;;;;11.07;51.27;97452.69;8353039;28;20243;-68
2022/02/18 06:02:49;;;;;;;30.20;8.10;;;;;;;11.18;50.73;97449.53;8352873;28;20674;-69
2022/02/18 06:06:52;;;;;;;27.50;7.70;;;;;;;11.17;51.15;97455.59;8353167;28;20232;-68
2022/02/18 06:10:57;;;;;;;31.20;7.77;;;;;;;11.04;51.33;97442.47;8352625;28;20414;-68
2022/02/18 06:15:00;;;;;;;30.73;8.17;;;;;;;10.95;51.40;97433.47;8350094;28;20234;-69
2022/02/18 06:19:07;;;;;;;28.43;7.37;;;;;;;11.12;50.76;97435.16;8352828;28;20239;-69
2022/02/18 06:23:10;;;;;;;23.50;6.97;;;;;;;11.05;51.07;97428.63;8353524;28;20287;-69
2022/02/18 06:27:14;;;;;;;24.87;7.30;;;;;;;11.05;51.07;97429.44;8353357;28;20232;-69
2022/02/18 06:31:18;;;;;;;30.00;8.47;;;;;;;11.07;51.26;97437.13;8353278;28;20231;-69
2022/02/18 06:35:21;;;;;;;33.50;8.00;;;;;;;11.07;51.24;97414.66;8353077;28;20512;-68
2022/02/18 06:39:24;;;;;;;31.97;8.40;;;;;;;10.71;52.07;97401.94;8352947;28;20232;-69
2022/02/18 06:43:29;;;;;;;30.00;7.87;;;;;;;11.03;51.50;97418.34;8352791;28;20235;-68
2022/02/18 06:47:32;;;;;;;27.90;7.30;;;;;;;11.18;51.28;97414.06;8351726;28;20535;-69
2022/02/18 06:51:35;;;;;;;28.47;7.93;;;;;;;11.34;50.84;97404.50;8352404;28;20232;-69
2022/02/18 06:55:38;;;;;;;28.47;7.97;;;;;;;11.32;50.60;97395.13;8352147;28;20236;-70
2022/02/18 06:59:43;;;;;;;24.30;6.93;;;;;;;11.21;51.04;97389.72;8351946;28;20236;-69
2022/02/18 07:03:46;;;;;;;33.27;8.30;;;;;;;11.10;51.38;97385.97;8350712;28;20231;-68
2022/02/18 07:07:49;;;;;;;26.07;7.63;;;;;;;11.05;51.24;97369.84;8351910;28;20236;-68
2022/02/18 07:11:52;;;;;;;29.30;7.93;;;;;;;10.87;51.30;97374.31;8351858;28;20228;-69
2022/02/18 07:15:56;;;;;;;26.33;7.17;;;;;;;11.02;51.28;97376.94;8351916;28;20236;-68
2022/02/18 07:20:00;;;;;;;24.17;7.60;;;;;;;10.97;51.00;97377.22;8351513;28;20232;-68
2022/02/18 07:24:06;;;;;;;31.53;8.20;;;;;;;10.79;50.98;97357.50;8351569;28;20228;-68
2022/02/18 07:28:09;;;;;;;34.87;8.27;;;;;;;11.01;50.74;97363.16;8351123;28;20236;-68
2022/02/18 07:32:13;;;;;;;28.17;7.47;;;;;;;11.09;50.54;97355.78;8351467;28;20242;-69
2022/02/18 07:36:16;;;;;;;30.63;7.90;;;;;;;11.09;50.52;97357.56;8351371;28;20232;-69
2022/02/18 07:40:19;;;;;;;25.20;7.80;;;;;;;10.93;50.62;97352.41;8351435;28;20418;-69
2022/02/18 07:44:22;;;;;;;27.27;7.67;;;;;;;10.90;51.04;97332.66;8350847;28;20224;-68
2022/02/18 07:48:27;;;;;;;27.77;6.90;;;;;;;10.83;50.57;97327.91;8350720;28;20430;-69
2022/02/18 07:52:30;;;;;;;28.97;7.40;;;;;;;10.89;50.81;97318.06;8351043;28;20243;-69
2022/02/18 07:56:33;;;;;;;27.53;8.30;;;;;;;10.95;50.86;97315.13;8350520;28;20232;-69
2022/02/18 08:00:38;;;;;;;24.47;7.10;;;;;;;10.96;50.96;97310.78;8350059;28;20232;-70
2022/02/18 08:04:42;;;;;;;25.77;7.20;;;;;;;10.69;51.72;97290.66;8350255;28;20239;-69
2022/02/18 08:08:46;;;;;;;25.67;6.93;;;;;;;10.79;51.57;97290.16;8349959;28;20251;-69
2022/02/18 08:12:49;;;;;;;33.13;8.57;;;;;;;11.01;51.75;97293.22;8350243;28;20255;-68
2022/02/18 08:16:52;;;;;;;26.17;7.30;;;;;;;11.01;51.71;97289.81;8349700;28;20534;-68
2022/02/18 08:20:56;;;;;;;27.07;7.53;;;;;;;10.92;52.99;97273.00;8349445;28;20426;-68
2022/02/18 08:25:00;;;;;;;27.37;7.17;;;;;;;11.12;52.97;97251.16;8348906;28;20228;-69
2022/02/18 08:29:03;;;;;;;25.07;6.93;;;;;;;11.14;52.69;97249.31;8349411;28;20566;-68
2022/02/18 08:33:06;;;;;;;24.60;7.17;;;;;;;10.84;53.30;97238.94;8349346;28;20224;-68
2022/02/18 08:37:11;;;;;;;24.07;7.17;;;;;;;11.05;53.51;97229.94;8349150;28;20457;-69
2022/02/18 08:41:14;;;;;;;21.47;6.50;;;;;;;11.16;53.69;97226.72;8349141;28;20539;-69
2022/02/18 08:45:17;;;;;;;25.97;7.00;;;;;;;10.72;54.77;97222.34;8348828;28;20235;-68
2022/02/18 08:49:20;;;;;;;23.87;6.70;;;;;;;10.87;54.29;97218.03;8348616;28;20236;-69
2022/02/18 08:53:25;;;;;;;20.97;6.07;;;;;;;10.92;54.53;97206.47;8348620;28;20230;-69
2022/02/18 08:57:28;;;;;;;25.77;7.10;;;;;;;10.84;55.13;97197.50;8348814;28;20240;-68
2022/02/18 09:01:31;;;;;;;25.53;6.20;;;;;;;11.05;55.28;97188.47;8347962;28;20228;-72
2022/02/18 09:05:34;;;;;;;25.57;7.47;;;;;;;10.78;54.95;97190.91;8348014;28;20239;-69
2022/02/18 09:09:38;;;;;;;24.53;6.87;;;;;;;10.95;54.38;97177.00;8348040;28;20232;-69
2022/02/18 09:13:41;;;;;;;20.03;6.30;;;;;;;11.14;54.18;97162.03;8348152;28;20240;-69
2022/02/18 09:17:44;;;;;;;21.17;6.60;;;;;;;10.85;55.18;97160.31;8348110;28;20543;-68
2022/02/18 09:21:47;;;;;;;21.40;6.50;;;;;;;10.86;55.38;97159.38;8347778;28;20236;-69
2022/02/18 09:25:52;;;;;;;27.77;7.53;;;;;;;10.90;54.67;97146.16;8347405;28;20248;-68
2022/02/18 09:29:56;;;;;;;19.17;6.00;;;;;;;11.11;54.26;97138.88;8347833;28;20434;-69
2022/02/18 09:33:59;;;;;;;22.30;6.47;;;;;;;10.91;54.66;97141.84;8347501;28;20234;-69
2022/02/18 09:38:02;;;;;;;19.30;6.10;;;;;;;10.99;54.81;97126.66;8347261;28;20235;-69
2022/02/18 09:42:08;;;;;;;26.20;6.20;;;;;;;10.71;55.13;97123.09;8347618;28;20228;-69
2022/02/18 09:46:11;;;;;;;26.90;6.40;;;;;;;10.70;55.58;97102.47;8347315;28;20240;-68
2022/02/18 09:50:15;;;;;;;17.97;5.57;;;;;;;10.81;55.36;97096.66;8347505;28;20242;-69
2022/02/18 09:54:37;;;;;;;24.43;6.20;;;;;;;10.85;54.79;97086.03;8346820;28;20515;-68
2022/02/18 09:58:42;;;;;;;20.17;5.83;;;;;;;11.55;59.36;97085.25;8345471;28;20435;-70
2022/02/18 10:02:48;;;;;;;24.70;7.20;;;;;;;12.13;56.43;97078.19;8347147;28;20232;-71
2022/02/18 10:06:51;;;;;;;18.00;5.63;;;;;;;13.15;56.47;97069.63;8347064;28;20259;-69
2022/02/18 10:10:58;;;;;;;16.30;5.30;;;;;;;14.24;56.61;97058.47;8346999;28;20228;-68
2022/02/18 10:15:09;;;;;;;19.30;5.80;;;;;;;14.85;53.25;97047.88;8347124;28;20231;-68
2022/02/18 10:19:14;;;;;;;22.83;6.57;;;;;;;14.01;48.92;97044.53;8347016;28;20418;-66
2022/02/18 10:23:18;;;;;;;24.10;6.83;;;;;;;12.97;51.54;97044.91;8346831;28;20274;-66
2022/02/18 10:27:25;;;;;;;23.97;6.80;;;;;;;12.63;52.87;97039.41;8345248;28;20258;-66
2022/02/18 10:31:29;;;;;;;22.67;6.47;;;;;;;12.24;53.79;97026.41;8345454;28;20427;-66
2022/02/18 10:35:33;;;;;;;23.43;6.70;;;;;;;12.08;54.48;97020.53;8337954;28;20236;-66
2022/02/18 10:39:38;;;;;;;21.47;6.63;;;;;;;12.36;54.25;97016.13;8351494;28;20421;-65
2022/02/18 10:43:44;;;;;;;22.77;6.73;;;;;;;12.44;54.03;97009.47;8352508;28;20558;-66
2022/02/18 10:47:50;;;;;;;19.37;4.90;;;;;;;12.59;53.83;96999.00;8352534;28;20235;-66
2022/02/18 10:51:54;;;;;;;17.30;4.87;;;;;;;12.43;53.74;96976.66;8352376;28;20228;-66
2022/02/18 10:55:58;;;;;;;16.80;4.87;;;;;;;12.31;53.91;96977.47;8352471;28;20228;-66
2022/02/18 11:00:12;;;;;;;19.43;5.80;;;;;;;12.67;53.49;96961.16;8352319;28;20232;-66
2022/02/18 11:04:27;;;;;;;16.03;4.83;;;;;;;12.80;52.97;96955.97;8352488;28;20228;-66
2022/02/18 11:08:31;;;;;;;15.13;4.90;;;;;;;12.80;53.63;96942.97;8352126;28;20278;-65
2022/02/18 11:12:35;;;;;;;15.13;4.53;;;;;;;12.86;53.41;96934.75;8351622;28;20232;-67
2022/02/18 11:16:41;;;;;;;16.37;4.93;;;;;;;12.65;53.62;96923.25;8351655;28;20228;-66
2022/02/18 11:20:46;;;;;;;18.17;4.70;;;;;;;12.86;53.86;96913.13;8351188;28;20236;-66
2022/02/18 11:24:49;;;;;;;17.80;5.30;;;;;;;12.97;53.47;96899.38;8351176;28;20246;-66
2022/02/18 11:28:53;;;;;;;13.77;4.87;;;;;;;13.17;53.71;96882.34;8350963;28;20231;-66
2022/02/18 11:33:06;;;;;;;15.90;4.77;;;;;;;13.24;53.41;96870.59;8351136;28;20239;-66
2022/02/18 11:38:01;;;;;;;15.23;4.50;;;;;;;13.33;53.09;96856.09;8350935;28;20232;-67
2022/02/18 11:42:09;;;;;;;15.40;4.43;;;;;;;13.30;53.33;96834.59;8326950;28;20235;-66
2022/02/18 11:46:22;;;;;;;13.70;4.07;;;;;;;13.30;53.77;96821.56;8350813;28;20423;-66
2022/02/18 11:50:30;;;;;;;16.00;4.80;;;;;;;13.34;53.74;96819.59;8350278;28;20243;-67
2022/02/18 11:54:36;;;;;;;15.10;4.10;;;;;;;13.58;53.40;96808.31;8350310;28;20235;-67
2022/02/18 11:58:52;;;;;;;13.90;4.70;;;;;;;13.45;54.23;96800.59;8350427;28;20347;-66
2022/02/18 12:03:10;;;;;;;14.87;4.23;;;;;;;13.57;53.94;96797.06;8350437;28;20234;-66
2022/02/18 12:07:28;;;;;;;14.23;3.87;;;;;;;13.78;53.84;96784.22;8350114;28;20228;-65
2022/02/18 12:11:43;;;;;;;11.23;4.27;;;;;;;13.71;53.97;96759.63;8349901;28;20236;-65
2022/02/18 12:15:49;;;;;;;11.93;4.30;;;;;;;13.39;54.56;96751.66;8349965;28;20418;-73
2022/02/18 12:20:10;;;;;;;12.93;4.47;;;;;;;13.79;54.16;96746.84;8349621;28;20239;-75
2022/02/18 12:24:40;;;;;;;10.90;3.97;;;;;;;13.90;53.82;96727.81;8349780;28;20228;-74
2022/02/18 12:28:45;;;;;;;12.63;3.93;;;;;;;13.97;54.01;96710.75;8346490;28;20232;-74
2022/02/18 12:32:49;;;;;;;15.20;4.07;;;;;;;14.20;53.98;96702.91;8349541;28;20569;-75
2022/02/18 12:36:52;;;;;;;15.20;3.90;;;;;;;14.45;53.03;96704.44;8349035;28;20239;-73
2022/02/18 12:40:55;;;;;;;12.23;3.93;;;;;;;14.97;52.48;96699.38;8349433;28;20239;-74
2022/02/18 12:45:01;;;;;;;13.63;3.53;;;;;;;14.72;52.05;96693.56;8349561;28;20574;-76
2022/02/18 12:49:04;;;;;;;14.80;3.90;;;;;;;14.79;52.79;96683.47;8348374;28;20232;-77
2022/02/18 12:53:08;;;;;;;8.57;3.00;;;;;;;15.07;52.26;96676.00;8347890;28;20225;-76
2022/02/18 12:57:19;;;;;;;13.07;3.73;;;;;;;15.09;52.02;96663.66;8347407;28;20290;-74
2022/02/18 13:01:23;;;;;;;8.50;2.63;;;;;;;15.11;52.46;96664.34;8344479;28;20220;-74
2022/02/18 13:05:28;;;;;;;10.40;3.47;;;;;;;14.86;53.18;96667.19;8346630;28;20539;-75
2022/02/18 13:09:32;;;;;;;11.13;3.63;;;;;;;14.86;53.01;96663.78;8346912;28;20295;-75
2022/02/18 13:13:35;;;;;;;8.27;2.97;;;;;;;14.92;52.72;96652.84;8346886;28;20422;-75
2022/02/18 13:17:45;;;;;;;11.97;3.40;;;;;;;14.86;53.24;96645.53;8346421;28;20223;-73
2022/02/18 13:21:49;;;;;;;10.60;3.47;;;;;;;14.86;53.25;96637.72;8346451;28;20224;-74
2022/02/18 13:25:53;;;;;;;13.00;3.60;;;;;;;14.85;53.54;96626.47;8346270;28;20538;-75
2022/02/18 13:29:56;;;;;;;9.33;3.60;;;;;;;14.87;53.99;96615.91;8346788;28;20235;-81
2022/02/18 13:34:01;;;;;;;10.07;3.43;;;;;;;14.83;54.13;96615.34;8346806;28;20400;-77
2022/02/18 13:38:14;;;;;;;11.50;3.53;;;;;;;14.91;54.08;96606.03;8345166;28;20534;-76
2022/02/18 13:42:17;;;;;;;10.93;3.23;;;;;;;14.84;54.47;96601.34;8347683;28;20419;-76
2022/02/18 13:46:31;;;;;;;11.67;3.37;;;;;;;14.76;54.43;96589.91;8347063;28;20462;-77
2022/02/18 13:50:36;;;;;;;11.93;3.20;;;;;;;14.77;54.49;96576.75;8345931;28;20232;-75
2022/02/18 13:54:41;;;;;;;7.33;2.53;;;;;;;14.80;54.40;96573.06;8343530;28;20234;-75
2022/02/18 13:58:45;;;;;;;5.67;1.77;;;;;;;14.78;54.21;96564.56;8346324;28;20235;-76
2022/02/18 14:02:49;;;;;;;2.17;1.10;;;;;;;14.83;54.05;96558.00;8346798;28;20228;-76
2022/02/18 14:07:01;;;;;;;3.73;1.00;;;;;;;14.90;53.30;96552.28;8346382;28;20543;-76
2022/02/18 14:11:12;;;;;;;2.17;1.13;;;;;;;15.01;53.35;96545.19;8346056;28;20239;-76
2022/02/18 14:15:18;;;;;;;5.10;1.20;;;;;;;15.05;53.29;96535.34;8352587;28;20228;-74
2022/02/18 14:19:21;;;;;;;6.47;1.57;;;;;;;14.97;53.32;96538.59;8353189;28;20549;-76
2022/02/18 14:23:31;;;;;;;3.77;1.30;;;;;;;14.83;53.57;96536.31;8352410;28;20228;-76
2022/02/18 14:27:36;;;;;;;4.00;1.20;;;;;;;15.00;53.09;96527.91;8352627;28;20239;-77
2022/02/18 14:31:40;;;;;;;3.83;1.40;;;;;;;15.00;52.82;96532.28;8352657;28;20339;-76
2022/02/18 14:35:43;;;;;;;4.00;1.30;;;;;;;14.98;52.59;96529.81;8350217;28;20268;-77
2022/02/18 14:39:47;;;;;;;7.20;2.07;;;;;;;14.95;52.31;96518.84;8352679;28;20231;-74
2022/02/18 14:43:51;;;;;;;2.53;1.00;;;;;;;15.01;51.60;96505.28;8352598;28;20240;-78
2022/02/18 14:47:56;;;;;;;2.87;1.00;;;;;;;14.98;51.31;96506.38;8352391;28;20240;-79
2022/02/18 14:51:59;;;;;;;4.23;1.10;;;;;;;14.99;51.12;96510.59;8352041;28;20236;-77
2022/02/18 14:56:04;;;;;;;4.07;1.20;;;;;;;14.94;50.63;96498.91;8351547;28;20232;-75
2022/02/18 15:00:09;;;;;;;3.60;0.90;;;;;;;15.02;50.90;96488.66;8349437;28;20433;-77
2022/02/18 15:04:12;;;;;;;3.17;1.27;;;;;;;15.16;50.44;96482.28;8351588;28;20247;-78
2022/02/18 15:08:15;;;;;;;5.40;1.20;;;;;;;15.11;50.67;96461.78;8351725;28;20236;-79
2022/02/18 15:12:19;;;;;;;2.83;0.93;;;;;;;15.15;50.31;96451.94;8352149;28;20435;-75
2022/02/18 15:16:22;;;;;;;4.83;1.33;;;;;;;15.10;50.85;96454.09;8351825;28;20236;-73
2022/02/18 15:20:25;;;;;;;3.50;1.30;;;;;;;15.10;50.68;96456.72;8351744;28;20232;-77
2022/02/18 15:24:28;;;;;;;5.30;1.10;;;;;;;15.14;50.40;96452.91;8350480;28;20263;-76
2022/02/18 15:28:32;;;;;;;3.17;1.10;;;;;;;15.14;50.70;96437.25;8350971;28;20232;-77
2022/02/18 15:36:56;;;;;;;2.93;1.10;;;;;;;15.11;50.86;96435.72;8351644;28;20232;-76
2022/02/18 15:45:21;;;;;;;2.93;0.93;;;;;;;15.16;50.52;96437.94;8351295;28;20540;-76
2022/02/18 15:49:24;;;;;;;4.40;1.17;;;;;;;15.15;50.23;96433.69;8350849;28;20236;-77
2022/02/18 15:53:27;;;;;;;4.97;1.20;;;;;;;15.06;50.75;96430.09;8351234;28;20228;-75
2022/02/18 15:57:30;;;;;;;5.33;1.13;;;;;;;14.82;50.93;96431.25;8350816;28;20243;-75
2022/02/18 16:01:35;;;;;;;4.70;2.17;;;;;;;15.03;50.88;96414.72;8350162;28;20230;-79
2022/02/18 16:05:57;;;;;;;4.60;1.30;;;;;;;15.04;50.40;96416.34;8350243;28;20421;-76
2022/02/18 16:10:03;;;;;;;5.27;2.70;;;;;;;14.94;50.59;96418.94;8349966;28;20244;-76
2022/02/18 16:14:06;;;;;;;4.03;2.50;;;;;;;14.86;50.48;96408.34;8349640;28;20239;-76
2022/02/18 16:18:10;;;;;;;7.30;5.90;;;;;;;14.73;50.96;96420.78;8348792;28;20230;-74
2022/02/18 16:22:13;;;;;;;7.37;6.37;;;;;;;14.86;50.50;96427.41;8349065;28;20235;-77
2022/02/18 16:26:16;;;;;;;14.27;11.03;;;;;;;14.90;50.75;96425.38;8348704;28;20539;-75
2022/02/18 16:30:19;;;;;;;7.73;5.43;;;;;;;14.96;50.67;96398.78;8348691;28;20228;-74
2022/02/18 16:34:24;;;;;;;6.17;4.87;;;;;;;14.86;50.92;96385.72;8348209;28;20531;-76
2022/02/18 16:38:27;;;;;;;2.87;2.33;;;;;;;14.71;51.44;96381.03;8349233;28;20244;-78
2022/02/18 16:42:33;;;;;;;3.83;2.13;;;;;;;14.58;51.97;96374.28;8349361;28;20557;-76
2022/02/18 16:46:37;;;;;;;2.87;1.43;;;;;;;14.52;52.19;96364.31;8348708;28;20237;-75
2022/02/18 16:50:41;;;;;;;4.73;0.90;;;;;;;14.43;52.79;96352.09;8348890;28;20247;-77
2022/02/18 16:54:50;;;;;;;3.43;1.00;;;;;;;14.39;52.97;96351.56;8348427;28;20239;-77
2022/02/18 16:58:52;;;;;;;3.67;1.27;;;;;;;14.60;52.26;96355.88;8348770;28;20239;-71
2022/02/18 17:02:56;;;;;;;2.07;1.13;;;;;;;14.51;52.66;96330.59;8348871;28;20212;-70
2022/02/18 17:07:02;;;;;;;4.87;1.10;;;;;;;14.60;52.55;96332.44;8348434;28;20535;-70
2022/02/18 17:11:05;;;;;;;3.57;1.23;;;;;;;14.57;52.48;96335.31;8347719;28;20236;-70
2022/02/18 17:15:09;;;;;;;4.53;1.30;;;;;;;14.55;52.63;96345.03;8347429;28;20224;-70
2022/02/18 17:19:12;;;;;;;4.47;1.10;;;;;;;14.55;52.65;96343.25;8347213;28;20235;-70
2022/02/18 17:23:17;;;;;;;3.43;1.27;;;;;;;14.47;52.53;96332.66;8344645;28;20423;-71
2022/02/18 17:27:20;;;;;;;2.47;1.07;;;;;;;14.39;52.70;96333.31;8346519;28;20569;-70
2022/02/18 17:31:24;;;;;;;2.63;1.00;;;;;;;14.54;52.40;96336.38;8346962;28;20527;-70
2022/02/18 17:35:28;;;;;;;2.63;1.30;;;;;;;14.48;52.15;96334.28;8344885;28;20243;-69
2022/02/18 17:39:33;;;;;;;5.43;1.03;;;;;;;14.40;52.28;96332.34;8347055;28;20469;-71
2022/02/18 17:43:35;;;;;;;1.23;0.70;;;;;;;14.48;52.00;96334.28;8345896;28;20224;-71
2022/02/18 17:47:38;;;;;;;2.97;0.80;;;;;;;14.45;51.78;96348.41;8342165;28;20239;-71
2022/02/18 17:51:42;;;;;;;1.40;0.93;;;;;;;14.49;51.69;96335.97;8346006;28;20251;-71
2022/02/18 17:55:46;;;;;;;1.57;0.87;;;;;;;14.66;51.37;96337.16;8346732;28;20232;-70
2022/02/18 17:59:49;;;;;;;3.27;1.00;;;;;;;14.48;51.49;96340.31;8347305;28;20547;-70
2022/02/18 18:03:55;;;;;;;1.70;0.97;;;;;;;14.72;51.34;96341.00;8346928;28;20452;-71
2022/02/18 18:08:00;;;;;;;2.43;0.90;;;;;;;14.63;50.69;96330.41;8346496;28;20239;-69
2022/02/18 18:12:07;;;;;;;2.63;1.20;;;;;;;14.62;50.53;96326.16;8346490;28;20524;-70
2022/02/18 18:16:11;;;;;;;3.30;1.10;;;;;;;14.58;50.74;96318.72;8345657;28;20400;-70
2022/02/18 18:20:14;;;;;;;1.50;0.90;;;;;;;14.61;50.36;96331.50;8343437;28;20236;-71
2022/02/18 18:24:18;;;;;;;3.07;0.80;;;;;;;14.50;49.77;96327.16;8346072;28;20415;-71
2022/02/18 18:28:23;;;;;;;2.90;0.60;;;;;;;14.58;49.36;96335.19;8345557;28;20232;-70
2022/02/18 18:32:26;;;;;;;1.80;0.77;;;;;;;14.45;49.76;96339.78;8345963;28;20244;-70
2022/02/18 18:36:29;;;;;;;3.80;0.87;;;;;;;14.62;49.53;96357.41;8343806;28;20292;-70
2022/02/18 18:40:32;;;;;;;4.10;0.80;;;;;;;14.52;52.60;96491.16;8345628;28;20228;-71
2022/02/18 18:44:37;;;;;;;8.87;1.17;;;;;;;12.96;57.52;96565.09;8345597;28;20231;-70
2022/02/18 18:48:40;;;;;;;3.87;1.40;;;;;;;12.20;60.70;96575.88;8345646;28;20252;-70
2022/02/18 18:52:43;;;;;;;1.77;0.90;;;;;;;11.98;61.15;96576.63;8345790;28;20232;-70
2022/02/18 18:56:46;;;;;;;3.53;1.70;;;;;;;11.89;58.86;96567.75;8345783;28;20531;-70
2022/02/18 19:00:51;;;;;;;2.67;0.80;;;;;;;12.08;57.34;96582.00;8351114;28;20406;-69
2022/02/18 19:04:54;;;;;;;1.40;0.80;;;;;;;11.86;55.64;96609.44;8349318;28;20256;-70
2022/02/18 19:08:57;;;;;;;1.50;0.77;;;;;;;11.68;53.54;96598.59;8351446;28;20228;-69